Airfield :
LOGIN :

Register | Disclaimer

   EN    FR    IT 

 










Legend :    VFR   Marginal VFR   IFR   Intensive IFR   Very Intensive IFR
Visi :
Ceiling :
>= 8 km
>= 3000ft
5 to 8 km
1000 to 3000 ft
1500m to 5 km
500 to 1000 ft
800 to 1500m
200 to 500 ft
< 800m
< 200 ft
Symbols :   Thunderstorms  Fog  Heavy snow  Heavy precipitations  Wind > 20 kt
SIGMETs :     Misc.  Thunderstorms  Icing  Turbulence  Mountain Waves  Volcanic Ashes







- Airport Elevation : 458 ft
- Download approach charts


LFSI - St-Dizier

CURRENT METAR :
  • 230000Z AUTO 27007KT 7000 -RA SCT010/// BKN016/// BKN029/// ///TCU 10/08 Q1021

EXPIRED METARs :
  • 222330Z AUTO 28009KT 240V320 7000 RA BKN010/// BKN019/// BKN027/// ///TCU 09/08 Q1021
  • 222300Z AUTO 24009KT 9999 -RA FEW012/// BKN019/// BKN037/// ///TCU 09/08 Q1021
  • 222230Z AUTO 25009KT 220V280 9999 -RA SCT016/// SCT028/// BKN058/// ///TCU 09/07 Q1021
  • 222200Z AUTO 25006KT 9999 FEW009/// OVC016/// ///TCU 09/07 Q1021
  • 222130Z AUTO 29005KT 250V320 9999 SCT015/// BKN020/// BKN029/// ///TCU 09/06 Q1021

TAF TAF LFSI
Valid from the 22 at 21:00 until the 23 at 21:00 UTC


222000Z 2221/2321 24012KT 9999 SCT020
BECMG 2221/2223 BKN012
TEMPO 2301/2306 4000 RA BKN008
No reported NOTAMs for that airfield.
1 SIGMET reported for the Paris FIR (LFFF) :
 
Severe turbulence
LFFF SIGMET 6 VALID 222300/230300 LFPW
LFFF PARIS FIR/UIR SEV TURB FCST E OF LINE N5045 E00315 - N4745 E00445 FL220/320 MOV E 15KT NC=



MET'MAP, your aeronautical weather chart ! - Copyright ORBIFLY December 2007 - Disclaimer

ORBIFLY MET'MAP TEAM :

Programming & Development : Alexandra Zaïnal
Concept & Development : Baudouin d'Aumeries
Co-Development & Prog : Marc-Olivier Méhu
Technical & hardware support : Manuel Goepfert

Contact : metmap@orbifly.com




SOURCES & CREDITS :

   NOAA